Time;durP1;ratioP1;P1;durP2;ratioP2;P2;SDS_P1;SDS_P2;PMS_P1;PMS_P2;Temp;Humidity;BMP_temperature;BMP_pressure;BME280_temperature;BME280_humidity;BME280_pressure;Samples;Min_cycle;Max_cycle;Signal;HPM_P1;HPM_P2
2021/11/01 00:00:11;;;;;;;;;45.75;38.00;;;;;11.59;47.30;98237.16;6017344;28;96621;-66
2021/11/01 00:03:17;;;;;;;;;48.80;39.20;;;;;11.60;47.12;98236.09;6031921;28;97146;-68
2021/11/01 00:06:20;;;;;;;;;52.40;41.00;;;;;11.57;47.33;98233.91;6029716;28;97437;-67
2021/11/01 00:09:27;;;;;;;;;49.00;38.00;;;;;11.49;47.25;98226.19;6028389;28;97594;-68
2021/11/01 00:12:31;;;;;;;;;48.20;39.00;;;;;11.53;47.17;98238.13;6024445;28;96664;-66
2021/11/01 00:15:34;;;;;;;;;54.75;42.00;;;;;11.52;47.11;98232.97;6023054;28;96720;-66
2021/11/01 00:18:39;;;;;;;;;49.00;38.80;;;;;11.48;47.09;98235.38;6027711;28;96705;-68
2021/11/01 00:21:42;;;;;;;;;47.60;38.00;;;;;11.47;46.91;98231.03;5994996;28;99449;-68
2021/11/01 00:24:45;;;;;;;;;48.40;39.00;;;;;11.43;47.50;98226.34;6022505;28;97101;-66
2021/11/01 00:27:50;;;;;;;;;47.00;39.00;;;;;11.44;46.65;98230.66;6018135;28;96683;-66
2021/11/01 00:30:56;;;;;;;;;45.00;38.00;;;;;11.34;47.66;98228.59;6018474;28;97184;-68
2021/11/01 00:34:01;;;;;;;;;50.67;40.00;;;;;11.32;47.24;98224.53;6033276;28;97886;-66
2021/11/01 00:37:05;;;;;;;;;49.40;38.40;;;;;11.25;46.62;98222.78;5994406;28;97335;-67
2021/11/01 00:40:10;;;;;;;;;47.00;38.00;;;;;11.20;47.28;98213.78;6021195;28;97231;-66
2021/11/01 00:43:13;;;;;;;;;50.00;40.00;;;;;11.18;46.81;98210.53;6014314;28;97474;-66
2021/11/01 00:46:16;;;;;;;;;48.00;39.00;;;;;11.12;47.30;98215.00;6022753;28;97402;-66
2021/11/01 00:49:21;;;;;;;;;48.60;38.60;;;;;11.11;47.38;98201.75;6004405;28;96742;-68
2021/11/01 00:52:26;;;;;;;;;46.40;38.40;;;;;11.16;47.24;98207.22;5993981;29;98006;-68
2021/11/01 00:55:35;;;;;;;;;45.50;38.00;;;;;11.18;47.77;98208.66;6025311;28;96607;-67
2021/11/01 00:58:38;;;;;;;;;49.00;39.00;;;;;11.15;47.49;98206.41;6035583;28;97563;-66
2021/11/01 01:01:42;;;;;;;;;52.00;39.00;;;;;11.16;47.52;98205.34;6018637;28;98196;-68
2021/11/01 01:04:48;;;;;;;;;47.80;38.20;;;;;11.17;47.02;98207.00;6017092;28;96660;-66
2021/11/01 01:07:51;;;;;;;;;46.20;36.20;;;;;11.19;46.99;98199.47;6025917;28;96413;-68
2021/11/01 01:10:55;;;;;;;;;49.00;38.00;;;;;11.14;46.67;98206.69;6028210;28;98251;-68
2021/11/01 01:14:02;;;;;;;;;48.00;36.40;;;;;11.07;47.02;98192.50;5997644;28;97734;-66
2021/11/01 01:17:06;;;;;;;;;47.00;38.00;;;;;10.95;47.32;98162.88;6009678;28;97563;-66
2021/11/01 01:20:13;;;;;;;;;46.00;38.00;;;;;11.08;46.77;98194.16;6026764;28;97110;-66
2021/11/01 01:23:16;;;;;;;;;47.00;37.75;;;;;10.96;47.17;98188.78;6001625;29;97769;-67
2021/11/01 01:26:21;;;;;;;;;50.00;38.75;;;;;10.90;46.86;98184.34;6025035;28;98160;-67
2021/11/01 01:29:25;;;;;;;;;45.40;37.00;;;;;10.82;47.27;98182.88;6021486;28;97489;-67
2021/11/01 01:32:28;;;;;;;;;48.80;38.80;;;;;10.76;47.37;98174.91;6032498;28;97271;-66
2021/11/01 01:35:34;;;;;;;;;49.40;40.00;;;;;10.72;47.47;98184.53;5994656;28;99767;-66
2021/11/01 01:38:37;;;;;;;;;49.00;39.00;;;;;10.69;47.47;98172.38;6004942;28;96915;-66
2021/11/01 01:41:44;;;;;;;;;48.20;38.80;;;;;10.61;46.82;98145.78;6028476;28;98128;-67
2021/11/01 01:44:48;;;;;;;;;45.50;36.00;;;;;10.67;47.38;98161.00;6020084;28;98072;-66
2021/11/01 01:47:53;;;;;;;;;47.50;38.00;;;;;10.72;47.00;98161.09;6015341;28;97871;-65
2021/11/01 01:50:59;;;;;;;;;49.00;38.20;;;;;10.77;47.20;98149.59;6015219;28;97036;-65
2021/11/01 01:54:04;;;;;;;;;52.00;39.00;;;;;10.76;47.05;98153.34;6019298;28;97084;-66
2021/11/01 01:57:07;;;;;;;;;48.00;37.80;;;;;10.74;47.18;98150.09;6025876;28;98723;-66
2021/11/01 02:00:22;;;;;;;;;49.00;39.00;;;;;10.73;47.17;98145.75;6023027;28;98115;-66
2021/11/01 02:03:25;;;;;;;;;45.25;36.00;;;;;10.75;47.49;98146.34;6036769;28;97115;-68
2021/11/01 02:06:42;;;;;;;;;45.00;36.20;;;;;10.77;47.90;98145.03;6018553;28;96927;-66
2021/11/01 02:09:57;;;;;;;;;47.00;37.00;;;;;10.78;46.97;98141.28;6012066;28;97603;-66
2021/11/01 02:13:06;;;;;;;;;45.00;37.00;;;;;10.57;46.91;98114.16;6021759;28;97242;-67
2021/11/01 02:16:11;;;;;;;;;48.40;38.00;;;;;10.65;47.10;98135.38;6004947;28;97226;-66
2021/11/01 02:19:17;;;;;;;;;46.20;38.00;;;;;10.61;47.01;98128.78;6033675;28;97513;-69
2021/11/01 02:22:31;;;;;;;;;46.00;36.00;;;;;10.63;46.99;98127.50;6030142;28;97548;-67
2021/11/01 02:25:40;;;;;;;;;46.80;38.00;;;;;10.59;47.11;98131.75;6020548;28;97184;-69
2021/11/01 02:28:47;;;;;;;;;47.00;38.00;;;;;10.57;47.44;98124.94;5996208;28;97066;-68
2021/11/01 02:31:52;;;;;;;;;45.00;36.80;;;;;10.57;47.52;98131.16;6011781;28;97444;-68
2021/11/01 02:34:56;;;;;;;;;46.20;37.00;;;;;10.60;46.89;98130.69;6006371;28;97022;-69
2021/11/01 02:38:02;;;;;;;;;47.80;38.00;;;;;10.61;47.48;98123.41;6018889;28;97151;-69
2021/11/01 02:41:21;;;;;;;;;44.00;36.00;;;;;10.62;47.54;98117.78;6035828;28;96874;-68
2021/11/01 02:44:25;;;;;;;;;45.00;36.00;;;;;10.62;47.18;98116.94;6027567;28;97437;-67
2021/11/01 02:47:30;;;;;;;;;44.25;35.00;;;;;10.60;47.17;98122.59;6022892;28;98008;-67
2021/11/01 02:50:33;;;;;;;;;40.80;35.00;;;;;10.60;47.13;98122.59;6021772;28;97383;-69
2021/11/01 02:53:36;;;;;;;;;45.40;35.40;;;;;10.61;46.68;98118.81;6017217;28;97456;-69
2021/11/01 02:56:43;;;;;;;;;44.80;35.00;;;;;10.61;46.90;98112.63;6024946;28;97551;-69
2021/11/01 02:59:46;;;;;;;;;41.60;35.00;;;;;10.57;46.67;98117.69;6029555;28;97403;-67
2021/11/01 03:02:51;;;;;;;;;45.00;35.50;;;;;10.55;46.82;98111.72;6023318;28;97169;-69
2021/11/01 03:05:54;;;;;;;;;42.40;35.00;;;;;10.51;46.83;98107.84;6032527;28;96743;-67
2021/11/01 03:08:58;;;;;;;;;45.00;35.00;;;;;10.45;46.37;98094.53;6033907;28;97193;-68
2021/11/01 03:12:07;;;;;;;;;41.00;34.00;;;;;10.40;46.66;98101.47;6029480;28;97344;-68
2021/11/01 03:15:17;;;;;;;;;40.00;33.00;;;;;10.33;46.92;98098.09;6036544;28;97523;-68
2021/11/01 03:18:23;;;;;;;;;41.20;34.00;;;;;10.27;47.11;98095.50;6032740;28;97224;-67
2021/11/01 03:21:29;;;;;;;;;38.00;32.00;;;;;10.28;47.04;98092.59;6029098;28;97259;-68
2021/11/01 03:24:35;;;;;;;;;41.50;33.00;;;;;10.29;46.81;98082.63;6024716;28;97209;-68
2021/11/01 03:27:41;;;;;;;;;40.60;33.00;;;;;10.28;47.03;98089.06;6017470;28;96889;-68
2021/11/01 03:30:47;;;;;;;;;38.60;32.40;;;;;10.23;46.76;98087.09;6016976;28;97189;-68
2021/11/01 03:33:53;;;;;;;;;37.60;32.00;;;;;10.29;46.89;98086.16;6017940;28;97937;-67
2021/11/01 03:37:00;;;;;;;;;39.80;32.00;;;;;10.29;46.84;98083.47;6036397;28;96910;-68
2021/11/01 03:40:04;;;;;;;;;34.60;30.00;;;;;10.29;47.19;98078.06;6032631;28;96660;-68
2021/11/01 03:43:10;;;;;;;;;38.60;32.00;;;;;10.28;47.48;98081.81;6020899;28;97408;-68
2021/11/01 03:46:13;;;;;;;;;37.60;32.00;;;;;10.29;47.04;98080.75;6023779;28;97564;-68
2021/11/01 03:49:17;;;;;;;;;42.50;34.50;;;;;10.27;47.03;98076.66;6040294;28;97148;-68
2021/11/01 03:52:23;;;;;;;;;41.50;32.00;;;;;10.23;46.87;98081.72;6034639;28;97365;-67
2021/11/01 03:55:29;;;;;;;;;39.80;33.00;;;;;10.19;46.94;98079.75;6026557;28;97119;-68
2021/11/01 03:58:35;;;;;;;;;39.20;33.00;;;;;10.17;47.49;98073.75;6037006;28;97124;-67
2021/11/01 04:01:39;;;;;;;;;38.40;33.00;;;;;10.15;47.52;98057.00;6012218;28;97358;-68
2021/11/01 04:04:45;;;;;;;;;39.20;33.20;;;;;10.23;47.70;98064.72;6033111;28;97442;-69
2021/11/01 04:07:49;;;;;;;;;42.40;34.80;;;;;10.22;47.83;98065.78;6027881;28;96638;-68
2021/11/01 04:10:52;;;;;;;;;40.00;34.00;;;;;10.23;47.25;98070.13;6008205;28;97281;-68
2021/11/01 04:14:00;;;;;;;;;43.25;35.00;;;;;10.25;47.10;98070.72;6034223;28;97624;-68
2021/11/01 04:28:56;;;;;;;;;37.00;32.00;;;;;10.32;46.31;98052.50;6028310;28;97182;-68
2021/11/01 04:32:10;;;;;;;;;40.00;33.00;;;;;10.35;46.66;98057.44;6027584;28;97559;-67
2021/11/01 04:35:20;;;;;;;;;38.20;30.00;;;;;10.35;46.61;98041.28;6007459;29;96900;-69
2021/11/01 04:38:37;;;;;;;;;34.20;30.00;;;;;10.38;46.44;98038.91;6024607;28;97746;-67
2021/11/01 04:41:54;;;;;;;;;36.40;32.00;;;;;10.43;46.37;98049.78;6035610;28;96810;-68
2021/11/01 05:56:30;;;;;;;;;28.20;25.80;;;;;11.19;45.03;97999.81;6009248;29;96690;-68
2021/11/01 06:03:02;;;;;;;;;26.80;23.80;;;;;12.52;42.37;98003.13;5987314;29;96981;-66
2021/11/01 06:06:22;;;;;;;;;24.80;22.40;;;;;13.87;39.89;98005.25;5992360;29;98194;-66
2021/11/01 06:09:46;;;;;;;;;24.20;22.00;;;;;15.80;36.10;98002.72;5993604;29;96494;-68
2021/11/01 06:51:43;;;;;;;;;31.00;27.80;;;;;28.81;18.14;98002.31;5989606;29;99407;-66
2021/11/01 06:55:08;;;;;;;;;29.00;27.00;;;;;29.29;17.61;97993.44;5992461;29;97303;-66
2021/11/01 06:58:33;;;;;;;;;29.00;26.00;;;;;29.78;17.36;98001.13;6008083;28;97456;-67
2021/11/01 07:15:05;;;;;;;;;29.00;26.00;;;;;32.04;15.15;97998.00;6011347;29;98052;-68
2021/11/01 07:18:12;;;;;;;;;31.25;28.25;;;;;32.35;14.38;97999.47;6016885;28;97707;-68
2021/11/01 07:21:38;;;;;;;;;32.00;27.00;;;;;32.84;14.18;97996.22;6013104;28;97621;-68
2021/11/01 08:21:55;;;;;;;;;21.50;20.00;;;;;38.14;11.45;97952.00;6010261;28;98015;-69
2021/11/01 08:28:40;;;;;;;;;24.40;24.00;;;;;38.70;11.19;97950.22;6015119;28;98032;-69
2021/11/01 08:35:45;;;;;;;;;24.80;23.80;;;;;39.03;10.81;97953.22;6022054;28;97122;-69
2021/11/01 08:42:36;;;;;;;;;23.00;23.00;;;;;39.39;10.78;97957.69;6019223;28;97403;-68
2021/11/01 08:45:59;;;;;;;;;20.40;19.00;;;;;39.56;11.00;97950.09;6005222;29;97445;-69
2021/11/01 09:06:12;;;;;;;;;19.60;18.60;;;;;40.57;10.72;97933.09;5995004;28;98899;-72
2021/11/01 09:19:48;;;;;;;;;18.60;17.60;;;;;40.36;10.50;97928.03;6013885;29;97444;-68
2021/11/01 09:23:10;;;;;;;;;16.75;14.50;;;;;40.19;10.56;97928.03;6002302;28;96712;-68
2021/11/01 09:26:20;;;;;;;;;19.40;16.60;;;;;40.20;11.08;97921.16;6018429;29;97998;-71
2021/11/01 09:29:30;;;;;;;;;15.00;14.00;;;;;40.19;10.82;97916.75;6010171;29;97577;-71
2021/11/01 09:36:12;;;;;;;;;17.60;16.60;;;;;40.09;11.15;97912.13;5999533;28;96670;-70
2021/11/01 09:39:45;;;;;;;;;16.20;14.20;;;;;40.01;11.03;97904.31;5998367;29;96727;-70
2021/11/01 09:42:52;;;;;;;;;14.00;14.00;;;;;39.95;11.03;97909.69;6015895;29;97460;-72
2021/11/01 09:45:56;;;;;;;;;15.00;14.00;;;;;39.71;11.34;97908.22;6016460;29;97524;-72
2021/11/01 09:49:13;;;;;;;;;16.00;15.00;;;;;39.61;11.38;97878.25;6009718;28;96704;-71
2021/11/01 09:52:18;;;;;;;;;15.00;15.00;;;;;39.75;11.35;97901.28;5996427;29;96916;-71
2021/11/01 09:55:40;;;;;;;;;16.50;15.00;;;;;39.73;10.88;97902.94;6017810;29;97844;-72
2021/11/01 10:02:05;;;;;;;;;17.00;16.00;;;;;39.77;10.88;97898.03;5997725;28;97044;-71
2021/11/01 10:05:09;;;;;;;;;15.50;14.50;;;;;39.67;10.90;97882.13;6017440;28;96831;-72
2021/11/01 10:08:18;;;;;;;;;16.00;14.00;;;;;39.65;10.98;97888.22;5998000;28;98225;-71
2021/11/01 10:11:25;;;;;;;;;15.00;15.00;;;;;39.69;11.75;97890.94;6014876;28;97603;-71
2021/11/01 10:14:29;;;;;;;;;14.60;14.60;;;;;39.80;11.62;97889.47;6031854;28;99471;-69
2021/11/01 10:17:35;;;;;;;;;14.80;14.80;;;;;39.87;11.35;97885.69;6031485;28;97475;-71
2021/11/01 10:20:42;;;;;;;;;13.25;12.25;;;;;40.02;11.29;97877.66;6016773;28;98552;-69
2021/11/01 10:23:49;;;;;;;;;14.20;14.00;;;;;40.05;11.11;97873.94;6019880;28;97743;-71
2021/11/01 10:26:54;;;;;;;;;14.00;14.00;;;;;39.96;10.63;97868.13;6011607;28;97280;-66
2021/11/01 10:30:00;;;;;;;;;14.00;13.00;;;;;39.24;11.40;97838.00;6017248;29;96676;-68
2021/11/01 10:33:05;;;;;;;;;13.00;12.25;;;;;38.85;10.84;97852.91;5983360;29;96896;-68
2021/11/01 10:36:08;;;;;;;;;14.50;13.00;;;;;38.68;11.88;97851.25;6015274;29;97093;-68
2021/11/01 10:39:19;;;;;;;;;12.40;11.00;;;;;38.68;11.41;97850.47;6015359;29;96802;-67
2021/11/01 10:42:29;;;;;;;;;11.80;10.80;;;;;38.92;11.18;97849.16;6000531;29;97474;-68
2021/11/01 10:45:49;;;;;;;;;9.00;9.00;;;;;38.52;9.92;97851.16;6014957;29;96573;-68
2021/11/01 11:12:54;;;;;;;;;12.00;11.00;;;;;34.65;12.45;97812.72;6013691;29;97444;-68
2021/11/01 11:15:59;;;;;;;;;11.00;10.00;;;;;35.17;12.50;97821.31;6019716;28;97184;-69
2021/11/01 11:19:12;;;;;;;;;10.00;9.00;;;;;35.20;12.11;97817.66;6007098;28;99535;-70
2021/11/01 11:22:40;;;;;;;;;12.20;11.80;;;;;35.01;12.52;97807.75;6018399;28;97871;-67
2021/11/01 11:29:39;;;;;;;;;9.00;9.00;;;;;31.92;14.11;97805.91;6008489;29;98272;-67
2021/11/01 11:40:05;;;;;;;;;11.00;10.00;;;;;32.49;14.29;97795.91;6018283;29;97507;-70
2021/11/01 11:50:19;;;;;;;;;12.00;10.00;;;;;33.15;13.87;97776.94;5952791;29;96862;-66
2021/11/01 11:53:24;;;;;;;;;11.80;9.00;;;;;33.35;13.72;97791.34;5947577;29;97350;-67
2021/11/01 11:56:30;;;;;;;;;11.00;10.00;;;;;33.56;13.51;97785.78;5954792;29;97985;-68
2021/11/01 11:59:36;;;;;;;;;13.00;10.00;;;;;33.62;13.45;97772.19;5947302;29;96916;-69
2021/11/01 12:02:44;;;;;;;;;10.00;9.00;;;;;33.79;13.62;97771.41;5955137;29;97691;-67
2021/11/01 12:06:11;;;;;;;;;11.00;10.00;;;;;33.66;13.57;97764.59;5943774;29;97539;-68
2021/11/01 12:09:21;;;;;;;;;11.60;11.00;;;;;33.21;13.74;97764.22;5944812;29;97593;-69
2021/11/01 12:12:49;;;;;;;;;10.00;9.00;;;;;32.71;14.06;97763.31;5950005;29;97648;-67
2021/11/01 12:19:18;;;;;;;;;11.00;10.00;;;;;31.70;14.89;97743.69;5943616;29;97182;-70
2021/11/01 12:22:27;;;;;;;;;12.00;11.00;;;;;31.57;15.27;97755.53;6019324;28;97699;-67
2021/11/01 12:25:41;;;;;;;;;9.80;8.00;;;;;31.70;15.28;97765.16;6018400;28;97392;-69
2021/11/01 12:28:51;;;;;;;;;12.20;10.00;;;;;31.79;15.15;97751.69;6017591;28;96660;-67
2021/11/01 12:32:04;;;;;;;;;10.00;10.00;;;;;31.66;15.20;97745.66;6008222;28;98115;-69
2021/11/01 12:35:16;;;;;;;;;9.60;9.00;;;;;31.62;15.11;97750.38;6006875;29;97348;-69
2021/11/01 12:38:34;;;;;;;;;10.25;8.00;;;;;31.44;15.14;97746.63;6020873;28;97531;-68
2021/11/01 12:41:49;;;;;;;;;10.40;9.00;;;;;31.09;15.15;97743.56;6018450;29;96609;-68
2021/11/01 12:58:25;;;;;;;;;9.00;8.00;;;;;29.73;16.71;97737.53;5929478;29;97331;-70
2021/11/01 13:01:29;;;;;;;;;10.50;9.50;;;;;29.47;16.96;97740.34;5939343;29;97419;-67
2021/11/01 13:04:38;;;;;;;;;9.00;9.00;;;;;29.47;16.89;97729.22;5924364;29;96889;-72
2021/11/01 13:07:52;;;;;;;;;10.00;10.00;;;;;29.20;17.12;97726.38;5924855;29;97455;-67
2021/11/01 13:11:00;;;;;;;;;9.00;9.00;;;;;29.03;17.32;97726.88;5940764;29;97385;-67
2021/11/01 13:18:06;;;;;;;;;10.40;10.40;;;;;28.96;17.69;97714.88;5925401;29;97430;-67
2021/11/01 13:21:15;;;;;;;;;12.00;11.00;;;;;28.66;18.47;97718.28;5907177;29;97883;-66
2021/11/01 13:24:22;;;;;;;;;11.00;10.00;;;;;28.17;18.40;97717.31;5925201;29;96800;-66
2021/11/01 13:27:42;;;;;;;;;10.40;9.00;;;;;28.16;18.72;97718.50;5958998;29;97800;-66
2021/11/01 13:34:47;;;;;;;;;9.00;8.50;;;;;27.99;18.83;97711.41;6017440;29;97471;-68
2021/11/01 13:37:56;;;;;;;;;10.50;9.50;;;;;27.07;20.03;97703.75;6020657;28;96822;-68
2021/11/01 13:41:01;;;;;;;;;10.00;9.20;;;;;26.98;20.13;97695.63;6023416;28;97020;-68
2021/11/01 13:44:09;;;;;;;;;9.00;8.60;;;;;26.71;20.27;97694.53;6007229;28;97204;-68
2021/11/01 13:47:16;;;;;;;;;10.00;9.80;;;;;26.68;20.25;97689.69;5987680;29;96745;-68
2021/11/01 13:50:25;;;;;;;;;11.40;10.40;;;;;26.51;20.74;97683.72;6027608;28;96715;-66
2021/11/01 13:53:34;;;;;;;;;8.60;8.00;;;;;26.44;21.10;97689.84;6000629;29;96524;-66
2021/11/01 13:56:43;;;;;;;;;10.40;9.40;;;;;26.44;20.68;97678.78;6001121;28;96905;-68
2021/11/01 13:59:51;;;;;;;;;11.00;10.00;;;;;26.09;21.12;97686.91;6001493;28;99635;-67
2021/11/01 14:13:23;;;;;;;;;11.00;10.00;;;;;25.96;21.57;97690.84;6030574;28;96718;-68
2021/11/01 14:16:35;;;;;;;;;9.60;9.20;;;;;25.85;22.14;97692.53;6036370;28;97227;-67
2021/11/01 14:30:07;;;;;;;;;10.00;9.20;;;;;24.40;23.86;97687.78;6017018;28;98078;-67
2021/11/01 14:37:07;;;;;;;;;10.00;9.00;;;;;24.12;24.29;97682.06;6023137;28;97548;-68
2021/11/01 15:14:10;;;;;;;;;9.00;8.00;;;;;22.39;27.73;97686.97;6007482;29;97990;-69
2021/11/01 15:20:51;;;;;;;;;10.00;7.00;;;;;22.30;28.04;97680.69;6011769;28;99698;-67
2021/11/01 15:34:15;;;;;;;;;9.00;9.00;;;;;21.89;28.88;97684.75;6022852;28;97627;-69
2021/11/01 16:18:01;;;;;;;;;10.00;9.00;;;;;20.70;31.15;97714.38;6265187;27;97253;-68
2021/11/01 16:21:05;;;;;;;;;10.80;9.00;;;;;20.67;30.79;97720.47;6270276;27;97703;-67
2021/11/01 16:24:11;;;;;;;;;9.60;9.00;;;;;20.66;30.73;97712.59;6264671;27;97528;-67
2021/11/01 16:27:16;;;;;;;;;10.40;9.60;;;;;20.63;30.75;97716.75;6259287;27;97125;-66
2021/11/01 16:30:22;;;;;;;;;10.00;10.00;;;;;20.61;31.02;97709.97;6271941;27;97451;-68
2021/11/01 16:33:34;;;;;;;;;12.40;11.00;;;;;20.55;31.09;97709.31;6266921;27;97167;-68
2021/11/01 16:40:11;;;;;;;;;12.75;11.00;;;;;20.43;31.09;97705.56;6272134;27;97277;-66
2021/11/01 16:43:17;;;;;;;;;11.80;10.20;;;;;20.40;31.14;97712.44;6293775;27;97407;-67
2021/11/01 16:46:21;;;;;;;;;11.00;10.00;;;;;20.33;31.30;97700.34;6294711;27;97914;-66
2021/11/01 16:49:30;;;;;;;;;11.00;10.75;;;;;20.25;31.77;97696.38;6272374;27;97999;-68
2021/11/01 16:52:34;;;;;;;;;11.60;10.00;;;;;20.28;31.54;97695.78;6291710;27;98641;-68
2021/11/01 16:55:39;;;;;;;;;12.00;11.00;;;;;20.25;31.68;97693.66;6252032;27;97722;-67
2021/11/01 16:58:45;;;;;;;;;13.00;13.00;;;;;20.22;32.08;97688.81;6251173;27;99008;-67
2021/11/01 17:01:52;;;;;;;;;19.00;18.00;;;;;20.14;31.96;97689.53;6275967;27;97011;-68
2021/11/01 17:05:01;;;;;;;;;12.40;11.00;;;;;20.01;32.24;97674.03;6280590;27;97292;-68
2021/11/01 17:22:06;;;;;;;;;12.40;11.40;;;;;19.29;34.00;97693.19;6252045;27;97049;-68
2021/11/01 17:25:13;;;;;;;;;11.80;10.80;;;;;19.08;34.26;97683.81;6276510;27;97474;-68
2021/11/01 17:28:30;;;;;;;;;13.00;13.00;;;;;18.86;34.98;97688.06;6270224;27;96655;-68
2021/11/01 17:35:17;;;;;;;;;12.20;12.20;;;;;18.55;35.08;97692.53;6265678;27;97460;-69
2021/11/01 18:43:18;;;;;;;;;15.75;12.75;;;;;16.46;39.52;97690.41;6248739;27;97624;-65
2021/11/01 18:50:44;;;;;;;;;14.00;13.00;;;;;16.43;39.41;97683.59;6282660;27;98079;-65
2021/11/01 18:53:34;;;;;;;;;17.00;15.00;;;;;16.32;40.09;97692.19;6256011;27;97402;-66
2021/11/01 18:56:42;;;;;;;;;17.00;15.00;;;;;16.27;40.27;97692.22;6265140;27;97592;-65
2021/11/01 18:59:46;;;;;;;;;15.00;15.00;;;;;16.10;40.53;97670.91;6245904;27;98159;-65
2021/11/01 19:02:55;;;;;;;;;16.00;15.00;;;;;16.12;40.69;97686.94;6272326;27;97165;-65
2021/11/01 19:06:05;;;;;;;;;15.00;14.00;;;;;16.04;40.56;97688.34;6253238;27;97929;-66
2021/11/01 19:09:22;;;;;;;;;15.40;12.40;;;;;15.95;41.21;97688.16;6270056;27;97160;-65
2021/11/01 20:06:58;;;;;;;;;33.00;28.75;;;;;14.94;42.12;97704.28;6261163;27;96646;-65
2021/11/01 20:13:46;;;;;;;;;35.00;29.80;;;;;14.90;42.23;97701.31;6251370;27;96922;-64
2021/11/01 20:17:24;;;;;;;;;32.80;30.00;;;;;14.90;42.22;97695.09;6259346;27;97477;-66
2021/11/01 21:25:07;;;;;;;;;30.80;29.40;;;;;16.25;40.84;97684.34;6197257;28;97849;-64
2021/11/01 21:28:10;;;;;;;;;31.80;29.20;;;;;16.21;41.01;97686.03;6209052;28;96968;-65
2021/11/01 21:31:14;;;;;;;;;30.00;27.60;;;;;16.15;41.28;97680.91;6186291;28;98308;-64
2021/11/01 21:34:27;;;;;;;;;31.40;29.00;;;;;16.16;41.11;97679.81;6187447;28;98151;-66
2021/11/01 21:37:32;;;;;;;;;29.25;28.25;;;;;16.25;40.81;97675.38;6210891;28;97471;-65
2021/11/01 21:40:35;;;;;;;;;26.00;24.40;;;;;16.38;40.33;97667.34;6165276;28;97290;-66
2021/11/01 21:43:39;;;;;;;;;29.00;25.00;;;;;16.51;40.28;97674.03;6188981;28;99904;-66
2021/11/01 21:46:42;;;;;;;;;22.00;20.00;;;;;16.65;39.08;97669.53;6204295;28;97335;-65
2021/11/01 21:49:50;;;;;;;;;24.60;21.00;;;;;16.79;39.32;97659.56;6168178;28;98435;-65
2021/11/01 21:52:55;;;;;;;;;26.00;23.00;;;;;16.89;39.27;97653.97;6184363;28;96741;-65
2021/11/01 21:55:58;;;;;;;;;26.40;24.40;;;;;16.96;39.62;97650.88;6249402;27;97431;-65
2021/11/01 22:25:53;;;;;;;;;35.75;32.00;;;;;16.33;41.39;97625.78;6270669;27;98383;-64
2021/11/01 22:39:06;;;;;;;;;39.25;32.50;;;;;16.15;41.43;97607.50;6270061;27;97183;-65
2021/11/01 22:42:40;;;;;;;;;31.50;30.00;;;;;16.13;41.21;97610.50;6273591;27;97047;-65
2021/11/01 22:45:56;;;;;;;;;32.00;29.80;;;;;16.12;41.50;97603.47;6261010;27;98034;-64
2021/11/01 22:55:48;;;;;;;;;18.00;16.60;;;;;16.59;40.86;97602.66;6273178;27;96649;-66
2021/11/01 22:58:53;;;;;;;;;21.60;20.00;;;;;16.72;41.08;97588.31;6277383;27;97156;-65
2021/11/01 23:02:03;;;;;;;;;21.25;19.00;;;;;16.74;41.36;97586.13;6251471;27;96968;-66
2021/11/01 23:05:16;;;;;;;;;22.60;20.00;;;;;16.75;41.90;97585.03;6276364;27;97220;-65
2021/11/01 23:31:50;;;;;;;;;31.00;29.40;;;;;16.94;41.47;97574.16;6274273;27;96477;-67
2021/11/01 23:34:54;;;;;;;;;29.40;26.00;;;;;16.66;42.88;97580.53;6274106;27;97385;-64
2021/11/01 23:37:57;;;;;;;;;35.20;30.20;;;;;16.37;42.86;97578.69;6263647;27;97056;-64
2021/11/01 23:41:00;;;;;;;;;33.75;29.75;;;;;16.15;43.27;97572.97;6273052;27;97451;-64
2021/11/01 23:44:06;;;;;;;;;35.20;30.20;;;;;16.04;43.42;97557.88;6251843;27;97020;-66
2021/11/01 23:47:09;;;;;;;;;28.25;27.25;;;;;15.94;44.10;97558.78;6254265;27;98420;-65
2021/11/01 23:50:13;;;;;;;;;33.00;28.00;;;;;15.94;43.90;97571.56;6272686;27;97073;-65
2021/11/01 23:53:22;;;;;;;;;32.60;29.00;;;;;15.94;44.11;97566.94;6253793;27;99405;-64
2021/11/01 23:56:25;;;;;;;;;37.67;32.67;;;;;15.91;44.04;97567.53;6284365;27;97284;-65
2021/11/01 23:59:30;;;;;;;;;42.00;33.00;;;;;15.87;43.17;97547.47;6268640;27;98207;-65
